ACA1381 MMUN-CYYZ
Flight info
| Callsign | ACA1381 |
|---|---|
| Flight time | N/A |
| Altitude | 39000 |
| Route | OMSUK2A OMSUK UM219 MYDIA M219 KNOST DCT CAMJO Q99 BLAAN Q69 RICCS DCT OXMAN LINNG3 |
| Aircraft | B77L/H-SDE1E2E3FGHIJ2J3J4J5M1RWXY/LB1D1 |
Departure
| Time | 2026-04-30 18:32 |
|---|---|
| Airport | Cancún International Airport (MMUN) |
Arrival
| Time | N/A |
|---|---|
| Airport | Toronto Pearson International Airport (CYYZ) |
| Time | Latitude | Longitude | Altitude | Speed | Heading |
|---|---|---|---|---|---|
| 2026-04-30 18:03 | 21.03626 | -86.86744 | 33 ft | 0 kts | 304° |
| 2026-04-30 18:20 | 21.03626 | -86.86743 | 33 ft | 1 kts | 304° |
| 2026-04-30 18:20 | 21.03612 | -86.86721 | 33 ft | 4 kts | 304° |
| 2026-04-30 18:20 | 21.03599 | -86.86697 | 31 ft | 4 kts | 284° |
| 2026-04-30 18:20 | 21.03599 | -86.86671 | 30 ft | 4 kts | 241° |
| 2026-04-30 18:21 | 21.03612 | -86.86655 | 31 ft | 0 kts | 213° |
| 2026-04-30 18:24 | 21.03607 | -86.86658 | 31 ft | 2 kts | 213° |
| 2026-04-30 18:24 | 21.03580 | -86.86677 | 33 ft | 7 kts | 213° |
| 2026-04-30 18:25 | 21.03528 | -86.86714 | 33 ft | 10 kts | 214° |
| 2026-04-30 18:25 | 21.03412 | -86.86797 | 34 ft | 10 kts | 213° |
| 2026-04-30 18:25 | 21.03355 | -86.86838 | 33 ft | 10 kts | 215° |
| 2026-04-30 18:26 | 21.03399 | -86.86974 | 34 ft | 13 kts | 304° |
| 2026-04-30 18:26 | 21.03455 | -86.87060 | 35 ft | 15 kts | 304° |
| 2026-04-30 18:26 | 21.03516 | -86.87163 | 35 ft | 18 kts | 301° |
| 2026-04-30 18:27 | 21.03669 | -86.87406 | 36 ft | 21 kts | 303° |
| 2026-04-30 18:27 | 21.03748 | -86.87533 | 35 ft | 21 kts | 303° |
| 2026-04-30 18:28 | 21.03909 | -86.87789 | 35 ft | 21 kts | 304° |
| 2026-04-30 18:28 | 21.03989 | -86.87918 | 35 ft | 21 kts | 303° |
| 2026-04-30 18:28 | 21.04149 | -86.88172 | 34 ft | 21 kts | 304° |
| 2026-04-30 18:29 | 21.04228 | -86.88310 | 40 ft | 39 kts | 36° |
| 2026-04-30 18:29 | 21.04333 | -86.88468 | 35 ft | 16 kts | 303° |
| 2026-04-30 18:30 | 21.04437 | -86.88630 | 35 ft | 16 kts | 304° |
| 2026-04-30 18:30 | 21.04581 | -86.88860 | 35 ft | 16 kts | 303° |
| 2026-04-30 18:31 | 21.04635 | -86.88952 | 34 ft | 11 kts | 293° |
| 2026-04-30 18:31 | 21.04561 | -86.89062 | 35 ft | 10 kts | 214° |
| 2026-04-30 18:32 | 21.04388 | -86.88868 | 37 ft | 60 kts | 124° |
| 2026-04-30 18:32 | 21.04161 | -86.88507 | 39 ft | 112 kts | 124° |
| 2026-04-30 18:32 | 21.02757 | -86.86170 | 1017 ft | 170 kts | 124° |
| 2026-04-30 18:33 | 21.02339 | -86.85458 | 1509 ft | 171 kts | 125° |
| 2026-04-30 18:33 | 21.01185 | -86.83028 | 2514 ft | 211 kts | 95° |
| 2026-04-30 18:33 | 21.01429 | -86.81361 | 2882 ft | 240 kts | 76° |
| 2026-04-30 18:34 | 21.01958 | -86.79606 | 3550 ft | 254 kts | 75° |
| 2026-04-30 18:34 | 21.03116 | -86.75885 | 5231 ft | 270 kts | 75° |
| 2026-04-30 18:34 | 21.03700 | -86.73969 | 6097 ft | 277 kts | 75° |
| 2026-04-30 18:35 | 21.04328 | -86.71998 | 6927 ft | 279 kts | 68° |
| 2026-04-30 18:35 | 21.05519 | -86.70343 | 7750 ft | 285 kts | 40° |
| 2026-04-30 18:35 | 21.07160 | -86.69169 | 8638 ft | 284 kts | 34° |
| 2026-04-30 18:36 | 21.10560 | -86.66997 | 10243 ft | 292 kts | 19° |
| 2026-04-30 18:36 | 21.12639 | -86.66758 | 10634 ft | 313 kts | 1° |
| 2026-04-30 18:36 | 21.17393 | -86.66841 | 11064 ft | 368 kts | 1° |
| 2026-04-30 18:37 | 21.20006 | -86.66871 | 11787 ft | 377 kts | 1° |
| 2026-04-30 18:37 | 21.22616 | -86.66890 | 12734 ft | 381 kts | 1° |
| 2026-04-30 18:37 | 21.25278 | -86.66903 | 13767 ft | 383 kts | 1° |
| 2026-04-30 18:37 | 21.27959 | -86.66917 | 14624 ft | 387 kts | 0° |
| 2026-04-30 18:38 | 21.30681 | -86.66930 | 15409 ft | 393 kts | 0° |
| 2026-04-30 18:38 | 21.33448 | -86.66944 | 16203 ft | 399 kts | 0° |
| 2026-04-30 18:38 | 21.36247 | -86.66958 | 16996 ft | 404 kts | 360° |
| 2026-04-30 18:38 | 21.39080 | -86.66972 | 17788 ft | 409 kts | 360° |
| 2026-04-30 18:39 | 21.41916 | -86.66986 | 18489 ft | 414 kts | 360° |
| 2026-04-30 18:39 | 21.44815 | -86.67001 | 19173 ft | 418 kts | 359° |
| 2026-04-30 18:39 | 21.47743 | -86.67016 | 19851 ft | 422 kts | 359° |
| 2026-04-30 18:39 | 21.50697 | -86.67031 | 20509 ft | 426 kts | 359° |
| 2026-04-30 18:40 | 21.53679 | -86.67046 | 21165 ft | 430 kts | 359° |
| 2026-04-30 18:40 | 21.56689 | -86.67061 | 21817 ft | 434 kts | 359° |
| 2026-04-30 18:40 | 21.59725 | -86.67077 | 22455 ft | 438 kts | 359° |
| 2026-04-30 18:40 | 21.62799 | -86.67092 | 23082 ft | 442 kts | 359° |
| 2026-04-30 18:41 | 21.65852 | -86.67108 | 23650 ft | 446 kts | 359° |
| 2026-04-30 18:41 | 21.68971 | -86.67123 | 24158 ft | 450 kts | 359° |